Time;durP1;ratioP1;P1;durP2;ratioP2;P2;SDS_P1;SDS_P2;PMS_P1;PMS_P2;Temp;Humidity;BMP_temperature;BMP_pressure;BME280_temperature;BME280_humidity;BME280_pressure;Samples;Min_cycle;Max_cycle;Signal;HPM_P1;HPM_P2
2022/08/12 00:43:16;;;;;;;12.88;10.15;;;12.50;99.90;;;;;;21064210;28;20048;-59
2022/08/12 00:53:21;;;;;;;7.90;6.78;;;12.60;99.90;;;;;;21047662;28;20089;-58
2022/08/12 01:03:24;;;;;;;6.07;5.47;;;12.60;99.90;;;;;;21062407;28;20085;-57
2022/08/12 01:13:28;;;;;;;4.70;3.90;;;12.60;99.90;;;;;;21061122;28;20036;-58
2022/08/12 01:23:49;;;;;;;5.28;4.78;;;12.70;99.90;;;;;;21060552;28;20081;-58
2022/08/12 01:34:02;;;;;;;5.57;5.05;;;12.70;99.90;;;;;;21058797;28;20048;-56
2022/08/12 01:44:07;;;;;;;7.40;5.80;;;12.70;99.90;;;;;;21058744;28;20043;-59
2022/08/12 01:54:18;;;;;;;7.43;6.32;;;12.70;99.90;;;;;;21058249;28;20036;-57
2022/08/12 02:14:56;;;;;;;11.77;8.70;;;12.70;99.90;;;;;;21055460;28;20039;-57
2022/08/12 02:25:14;;;;;;;9.45;8.50;;;12.80;99.90;;;;;;21055809;28;20040;-56
2022/08/12 02:35:24;;;;;;;10.30;7.68;;;12.70;99.90;;;;;;21054892;28;20044;-57
2022/08/12 02:45:37;;;;;;;8.65;7.72;;;12.60;99.90;;;;;;21053727;28;20028;-56
2022/08/12 02:55:40;;;;;;;8.73;7.35;;;12.60;99.90;;;;;;21053258;28;20028;-55
2022/08/12 03:05:56;;;;;;;8.48;7.38;;;12.60;99.90;;;;;;21052606;28;20044;-55
2022/08/12 03:15:59;;;;;;;6.68;6.07;;;12.60;99.90;;;;;;21051805;28;20040;-57
2022/08/12 03:26:01;;;;;;;6.70;6.00;;;12.50;99.90;;;;;;21051259;28;20032;-57
2022/08/12 03:36:06;;;;;;;10.98;7.15;;;12.40;99.90;;;;;;21050454;28;20097;-55
2022/08/12 04:06:56;;;;;;;7.32;4.47;;;12.50;99.90;;;;;;21111815;28;20039;-55
2022/08/12 04:17:00;;;;;;;5.93;5.32;;;12.50;99.90;;;;;;21130544;28;20102;-60
2022/08/12 04:27:08;;;;;;;8.65;6.10;;;12.20;99.90;;;;;;21129085;28;20039;-61
2022/08/12 04:37:12;;;;;;;9.27;6.88;;;11.90;99.90;;;;;;21130816;28;20461;-54
2022/08/12 04:47:15;;;;;;;8.93;6.10;;;11.70;99.90;;;;;;21063937;28;20101;-53
2022/08/12 04:57:18;;;;;;;7.70;6.65;;;11.70;99.90;;;;;;21047009;28;20089;-53
2022/08/12 05:07:22;;;;;;;9.82;6.75;;;11.70;99.90;;;;;;20995309;28;20033;-54
2022/08/12 05:17:25;;;;;;;6.68;5.60;;;11.70;99.90;;;;;;21043187;28;20081;-53
2022/08/12 05:27:27;;;;;;;8.80;6.28;;;11.80;99.90;;;;;;21060555;28;20032;-51
2022/08/12 05:37:29;;;;;;;6.60;5.30;;;12.00;99.90;;;;;;21060036;28;20117;-54
2022/08/12 05:47:32;;;;;;;5.00;4.50;;;12.30;99.90;;;;;;21083768;28;20047;-60
2022/08/12 05:57:35;;;;;;;4.88;4.18;;;12.50;99.90;;;;;;21141753;28;20039;-54
2022/08/12 06:07:44;;;;;;;5.07;3.33;;;12.90;99.90;;;;;;21095049;28;20027;-52
2022/08/12 06:17:46;;;;;;;3.80;2.85;;;13.30;99.90;;;;;;21139720;28;20468;-55
2022/08/12 06:27:49;;;;;;;5.28;2.72;;;13.90;99.90;;;;;;21138975;28;20044;-54
2022/08/12 06:37:55;;;;;;;3.13;2.53;;;14.40;99.90;;;;;;21137926;28;20047;-53
2022/08/12 06:48:05;;;;;;;5.68;1.92;;;14.80;99.90;;;;;;21137334;28;20035;-54
2022/08/12 06:58:08;;;;;;;4.30;2.10;;;15.80;99.90;;;;;;21136665;28;20481;-51
2022/08/12 07:08:12;;;;;;;1.98;1.40;;;17.30;99.90;;;;;;21074227;28;20443;-54
2022/08/12 07:18:18;;;;;;;2.72;1.70;;;18.10;99.90;;;;;;21051302;28;20125;-55
2022/08/12 07:28:28;;;;;;;1.45;1.30;;;18.30;99.90;;;;;;21052734;28;20044;-55
2022/08/12 07:38:34;;;;;;;1.83;1.20;;;18.50;99.90;;;;;;21049164;28;20177;-54
2022/08/12 07:48:43;;;;;;;2.33;1.50;;;18.90;99.90;;;;;;21049288;28;20093;-55
2022/08/12 07:58:46;;;;;;;2.42;1.60;;;19.20;99.90;;;;;;21049012;28;20048;-55
2022/08/12 08:08:49;;;;;;;2.40;1.85;;;19.20;99.90;;;;;;21102170;28;20043;-54
2022/08/12 08:18:52;;;;;;;2.28;1.98;;;19.60;99.90;;;;;;21131171;28;20043;-61
2022/08/12 08:28:54;;;;;;;2.35;1.70;;;20.30;99.90;;;;;;21129488;28;20043;-61
2022/08/12 08:38:56;;;;;;;1.88;1.70;;;20.80;97.50;;;;;;21129958;28;20039;-55
2022/08/12 08:49:00;;;;;;;3.05;1.80;;;21.10;99.10;;;;;;21144603;28;20051;-54
2022/08/12 08:59:03;;;;;;;3.33;1.77;;;21.50;97.30;;;;;;21145823;28;20382;-53
2022/08/12 09:09:10;;;;;;;2.28;1.48;;;21.40;98.50;;;;;;21133053;28;20058;-56
2022/08/12 09:19:13;;;;;;;2.97;1.60;;;21.50;98.20;;;;;;21143418;28;20065;-55
2022/08/12 09:29:20;;;;;;;2.20;2.00;;;21.40;97.60;;;;;;21086562;28;20445;-51
2022/08/12 09:39:23;;;;;;;3.83;1.40;;;21.20;98.20;;;;;;21058746;28;20443;-54
2022/08/12 09:49:26;;;;;;;3.75;1.63;;;21.40;97.10;;;;;;21058497;28;20082;-55
2022/08/12 09:59:29;;;;;;;2.65;1.60;;;22.70;94.80;;;;;;21056192;28;20055;-55
2022/08/12 10:09:32;;;;;;;2.88;1.75;;;22.30;95.00;;;;;;21039075;28;20028;-53
2022/08/12 10:19:36;;;;;;;1.65;1.55;;;21.60;96.30;;;;;;21056082;28;20067;-52
2022/08/12 10:29:40;;;;;;;1.63;1.50;;;21.30;96.20;;;;;;21055099;28;20097;-61
2022/08/12 10:39:45;;;;;;;2.42;1.90;;;21.20;96.50;;;;;;21012095;28;20048;-55
2022/08/12 10:49:49;;;;;;;3.92;1.83;;;21.40;95.80;;;;;;21022906;28;20120;-55
2022/08/12 10:59:58;;;;;;;2.20;2.00;;;22.20;97.20;;;;;;21052841;28;20518;-55
2022/08/12 11:10:00;;;;;;;;;;;22.00;95.40;;;;;;21028662;28;20078;-54
2022/08/12 11:20:03;;;;;;;1.95;1.48;;;21.70;94.40;;;;;;21051275;28;19923;-55
2022/08/12 11:30:06;;;;;;;2.58;1.30;;;21.80;95.80;;;;;;21049905;28;20036;-53
2022/08/12 11:40:09;;;;;;;2.25;1.70;;;21.20;94.80;;;;;;21050848;28;20510;-56
2022/08/12 11:50:12;;;;;;;5.05;1.52;;;20.60;96.90;;;;;;21049335;28;20043;-61
2022/08/12 12:00:16;;;;;;;1.92;1.48;;;20.10;96.50;;;;;;20889869;28;20048;-56
2022/08/12 12:10:20;;;;;;;2.65;1.30;;;21.20;97.60;;;;;;20795840;28;20041;-55
2022/08/12 12:20:22;;;;;;;2.15;1.60;;;21.20;95.50;;;;;;20799187;28;20115;-55
2022/08/12 12:30:25;;;;;;;2.03;1.40;;;20.50;95.70;;;;;;20865133;28;20068;-55
2022/08/12 12:40:29;;;;;;;1.95;1.35;;;20.30;97.00;;;;;;21063745;28;20062;-55
2022/08/12 12:50:39;;;;;;;2.00;1.80;;;21.70;95.40;;;;;;21064457;28;20044;-55
2022/08/12 13:00:43;;;;;;;4.38;1.30;;;21.40;94.00;;;;;;21063431;28;20387;-54
2022/08/12 13:10:48;;;;;;;2.75;1.38;;;21.50;94.50;;;;;;21026324;28;20739;-54
2022/08/12 13:20:51;;;;;;;1.60;1.50;;;21.90;94.90;;;;;;21060738;28;20040;-54
2022/08/12 13:30:56;;;;;;;1.85;1.70;;;21.70;93.70;;;;;;21060091;28;20476;-56
2022/08/12 13:40:59;;;;;;;1.65;1.50;;;21.40;94.60;;;;;;21058981;28;20492;-54
2022/08/12 13:51:01;;;;;;;3.20;1.60;;;20.50;94.30;;;;;;21058222;28;20519;-56
2022/08/12 14:01:04;;;;;;;2.05;1.70;;;20.10;96.30;;;;;;21055814;28;20066;-61
2022/08/12 14:11:10;;;;;;;1.50;1.40;;;19.60;98.40;;;;;;21018638;28;20051;-55
2022/08/12 14:21:14;;;;;;;1.83;1.60;;;19.80;97.40;;;;;;21055894;28;20043;-54
2022/08/12 14:31:17;;;;;;;2.75;1.90;;;19.80;98.60;;;;;;21055337;28;20044;-55
2022/08/12 14:41:24;;;;;;;3.17;2.20;;;19.30;98.30;;;;;;21053837;28;20052;-55
2022/08/12 14:51:27;;;;;;;7.03;3.92;;;18.60;99.90;;;;;;21053594;28;20093;-59
2022/08/12 15:01:40;;;;;;;6.35;4.70;;;17.60;99.90;;;;;;21031363;28;20452;-59
2022/08/12 15:11:44;;;;;;;8.77;7.07;;;16.00;99.90;;;;;;20995667;28;20077;-58
2022/08/12 15:21:46;;;;;;;7.63;6.22;;;14.70;99.90;;;;;;21093538;28;20047;-58
2022/08/12 15:31:49;;;;;;;9.77;6.32;;;14.10;99.90;;;;;;21133400;28;20389;-58
2022/08/12 15:41:52;;;;;;;12.43;9.07;;;13.70;99.90;;;;;;21133977;28;20048;-59
2022/08/12 15:51:54;;;;;;;9.35;7.55;;;13.40;99.90;;;;;;21131609;28;20085;-58
2022/08/12 16:01:57;;;;;;;11.07;7.55;;;13.10;99.90;;;;;;21123962;28;20040;-60
2022/08/12 16:12:02;;;;;;;16.63;11.98;;;12.90;99.90;;;;;;21086694;28;20062;-59
2022/08/12 16:22:06;;;;;;;13.07;9.07;;;12.70;99.90;;;;;;21129295;28;20431;-59
2022/08/12 16:32:09;;;;;;;8.55;6.80;;;12.60;99.90;;;;;;21130861;28;20096;-59
2022/08/12 16:42:12;;;;;;;5.25;4.20;;;12.50;99.90;;;;;;21079728;28;20045;-59
2022/08/12 16:52:14;;;;;;;4.07;3.20;;;12.30;99.90;;;;;;21001387;28;20044;-59
2022/08/12 17:02:17;;;;;;;4.25;3.85;;;12.20;99.90;;;;;;21028704;28;20533;-60
2022/08/12 17:12:20;;;;;;;9.75;5.28;;;11.90;99.90;;;;;;21096126;28;20569;-60
2022/08/12 17:22:24;;;;;;;6.32;5.70;;;11.90;99.90;;;;;;21046870;28;20048;-59
2022/08/12 17:32:30;;;;;;;5.68;4.50;;;11.90;99.90;;;;;;21059387;28;20036;-60
2022/08/12 17:42:32;;;;;;;7.38;6.05;;;11.80;99.90;;;;;;21060681;28;20044;-60
2022/08/12 17:52:39;;;;;;;7.40;6.57;;;11.70;99.90;;;;;;21112202;28;20043;-59
2022/08/12 18:02:41;;;;;;;9.52;7.57;;;11.70;99.90;;;;;;21140355;28;20043;-60
2022/08/12 18:12:46;;;;;;;10.15;7.75;;;11.70;99.90;;;;;;21110587;28;20086;-60
2022/08/12 18:22:52;;;;;;;8.15;6.57;;;11.70;99.90;;;;;;21054896;28;20070;-60
2022/08/12 18:32:57;;;;;;;8.68;7.78;;;11.60;99.90;;;;;;21055721;28;20056;-60
2022/08/12 18:43:00;;;;;;;10.18;8.60;;;11.50;99.90;;;;;;21053977;28;20129;-60
2022/08/12 18:53:06;;;;;;;9.05;7.97;;;11.40;99.90;;;;;;21118565;28;20097;-60
2022/08/12 19:03:15;;;;;;;8.93;8.00;;;11.30;99.90;;;;;;21134765;28;20070;-59
2022/08/12 19:23:42;;;;;;;11.13;8.70;;;11.30;99.90;;;;;;21049422;28;20044;-59
2022/08/12 19:33:46;;;;;;;9.90;7.80;;;11.30;99.90;;;;;;21048063;28;20100;-59
2022/08/12 19:43:50;;;;;;;9.52;8.07;;;11.40;99.90;;;;;;21049704;28;20430;-59
2022/08/12 19:53:53;;;;;;;11.23;9.05;;;11.50;99.90;;;;;;21030303;28;20066;-59
2022/08/12 20:03:59;;;;;;;8.35;7.32;;;11.60;99.90;;;;;;20984472;28;20426;-59
2022/08/12 20:14:02;;;;;;;6.10;5.25;;;11.80;99.90;;;;;;21056273;28;20564;-59
2022/08/12 20:24:08;;;;;;;5.97;4.43;;;11.80;99.90;;;;;;21081621;28;20035;-57
2022/08/12 20:34:10;;;;;;;4.18;3.78;;;11.80;99.90;;;;;;21052578;28;20056;-56
2022/08/12 20:44:17;;;;;;;2.58;1.70;;;11.80;99.90;;;;;;21060383;28;20113;-57
2022/08/12 20:54:21;;;;;;;1.58;1.30;;;11.70;99.90;;;;;;21062619;28;20031;-58
2022/08/12 21:14:52;;;;;;;1.10;0.80;;;11.30;99.90;;;;;;21047089;28;20052;-53
2022/08/12 21:24:55;;;;;;;0.90;0.55;;;11.30;99.90;;;;;;21061140;28;20036;-53
2022/08/12 21:34:57;;;;;;;1.30;0.50;;;11.40;99.90;;;;;;21056739;28;20101;-53
2022/08/12 21:45:00;;;;;;;0.65;0.50;;;11.40;99.90;;;;;;21040945;28;20593;-58
2022/08/12 21:55:11;;;;;;;0.70;0.60;;;11.40;99.90;;;;;;21057066;28;20097;-54
2022/08/12 22:15:34;;;;;;;0.40;0.30;;;11.50;99.90;;;;;;21056897;28;20066;-54
2022/08/12 22:25:37;;;;;;;0.35;0.28;;;11.50;99.90;;;;;;21056044;28;20032;-54
2022/08/12 22:35:41;;;;;;;0.50;0.30;;;11.60;99.90;;;;;;21055693;28;20056;-51
2022/08/12 22:56:08;;;;;;;1.95;0.40;;;11.10;99.90;;;;;;21055692;28;20090;-54
2022/08/12 23:06:10;;;;;;;0.70;0.40;;;10.70;99.90;;;;;;21053580;28;20040;-54
2022/08/12 23:16:16;;;;;;;0.30;0.30;;;10.30;99.90;;;;;;21052119;28;20085;-55
2022/08/12 23:29:13;;;;;;;0.70;0.50;;;10.10;99.90;;;;;;21050556;28;20035;-54
2022/08/12 23:36:45;;;;;;;0.98;0.50;;;10.00;99.90;;;;;;21034613;28;20122;-54
2022/08/12 23:46:57;;;;;;;1.10;0.50;;;9.90;99.90;;;;;;21051378;28;20152;-54
2022/08/12 23:56:59;;;;;;;2.97;0.50;;;;;;;;;;21049697;28;20493;-55
